Terminal Aerodrome Forecast
Issued by NWS

Home | Current Version | Previous Version | Text Only | Print | Product List | Glossary On
Versions: 1 2 3 4 5 6 7 8 9 10 11 12 13 14 15 16 17 18 19 20 21 22
000
FTUS41 KAKQ 261100 RRA
TAFPHF
TAF
KPHF 261144Z 2612/2712 07004KT P6SM BKN100
     FM261500 07003KT P6SM VCSH BKN050
     FM262100 04006KT 4SM -RA BR OVC015
     FM270600 31012KT 2SM -SN BR OVC007=

USA.gov is the U.S. government's official web portal to all federal, state and local government web resources and services.